createdAt,value
2023-02-18T00:03:42.401Z,1.93
2023-02-18T00:08:48.179Z,3.65
2023-02-18T00:13:59.189Z,4.70
2023-02-18T00:19:06.036Z,4.23
2023-02-18T00:24:12.445Z,3.67
2023-02-18T00:29:16.259Z,2.90
2023-02-18T00:34:20.117Z,2.93
2023-02-18T00:39:23.952Z,2.23
2023-02-18T00:44:28.900Z,3.33
2023-02-18T00:49:34.343Z,2.30
2023-02-18T00:59:43.771Z,2.87
2023-02-18T01:04:47.602Z,3.87
2023-02-18T01:09:51.838Z,3.17
2023-02-18T01:14:55.703Z,5.27
2023-02-18T01:20:01.712Z,4.87
2023-02-18T01:25:07.340Z,6.10
2023-02-18T01:30:15.896Z,4.10
2023-02-18T01:35:21.854Z,3.40
2023-02-18T01:40:29.153Z,2.57
2023-02-18T01:45:39.707Z,2.93
2023-02-18T01:50:52.163Z,4.70
2023-02-18T01:55:56.524Z,4.03
2023-02-18T02:01:02.579Z,4.37
2023-02-18T02:06:15.813Z,4.27
2023-02-18T02:11:33.750Z,3.13
2023-02-18T02:16:37.543Z,2.40
2023-02-18T02:22:12.764Z,4.27
2023-02-18T02:27:23.356Z,2.63
2023-02-18T02:32:45.791Z,2.97
2023-02-18T02:38:01.133Z,2.33
2023-02-18T02:43:30.353Z,3.15
2023-02-18T02:48:38.996Z,4.17
2023-02-18T02:53:45.567Z,4.10
2023-02-18T02:59:07.293Z,3.70
2023-02-18T03:04:44.600Z,5.40
2023-02-18T03:10:04.620Z,7.47
2023-02-18T03:15:27.202Z,6.47
2023-02-18T03:20:47.570Z,6.67
2023-02-18T03:25:52.500Z,10.93
2023-02-18T03:31:14.154Z,11.70
2023-02-18T03:36:22.182Z,8.17
2023-02-18T03:41:25.991Z,8.43
2023-02-18T03:46:31.307Z,7.07
2023-02-18T03:51:35.479Z,7.73
2023-02-18T03:56:39.490Z,15.80
2023-02-18T04:01:43.533Z,24.77
2023-02-18T04:06:47.459Z,13.97
2023-02-18T04:11:51.381Z,11.77
2023-02-18T04:16:55.244Z,9.90
2023-02-18T04:21:59.219Z,8.50
2023-02-18T04:27:05.143Z,6.97
2023-02-18T04:32:09.644Z,10.13
2023-02-18T04:37:13.666Z,12.87
2023-02-18T04:42:17.648Z,10.13
2023-02-18T04:47:21.648Z,8.53
2023-02-18T04:52:25.423Z,9.00
2023-02-18T04:57:29.396Z,6.93
2023-02-18T05:02:33.943Z,7.70
2023-02-18T05:07:38.044Z,5.90
2023-02-18T05:12:42.188Z,5.97
2023-02-18T05:17:46.106Z,4.60
2023-02-18T05:22:50.182Z,5.00
2023-02-18T05:27:54.212Z,5.77
2023-02-18T05:32:58.049Z,5.27
2023-02-18T05:38:02.259Z,5.43
2023-02-18T05:43:05.946Z,5.70
2023-02-18T05:48:10.191Z,5.67
2023-02-18T05:53:15.156Z,5.07
2023-02-18T05:58:20.771Z,5.63
2023-02-18T06:03:24.835Z,4.93
2023-02-18T06:08:28.844Z,6.80
2023-02-18T06:13:32.888Z,6.13
2023-02-18T06:18:36.980Z,6.77
2023-02-18T06:23:41.041Z,6.78
2023-02-18T06:28:45.060Z,6.88
2023-02-18T06:33:48.815Z,5.78
2023-02-18T06:38:52.865Z,5.68
2023-02-18T06:43:56.749Z,6.22
2023-02-18T06:49:01.071Z,6.90
2023-02-18T06:54:06.528Z,6.73
2023-02-18T06:59:10.817Z,6.40
2023-02-18T07:04:14.967Z,5.93
2023-02-18T07:09:18.774Z,6.22
2023-02-18T07:14:25.148Z,5.75
2023-02-18T07:19:29.146Z,5.70
2023-02-18T07:24:33.119Z,6.35
2023-02-18T07:29:36.902Z,6.30
2023-02-18T07:34:40.965Z,5.03
2023-02-18T07:39:46.772Z,6.53
2023-02-18T07:44:50.564Z,5.15
2023-02-18T07:49:54.637Z,6.53
2023-02-18T07:54:58.482Z,5.22
2023-02-18T08:00:02.479Z,5.63
2023-02-18T08:05:16.206Z,6.53
2023-02-18T08:10:20.252Z,6.72
2023-02-18T08:15:24.679Z,5.35
2023-02-18T08:20:30.789Z,6.47
2023-02-18T08:25:35.166Z,5.97
2023-02-18T08:30:39.093Z,7.15
2023-02-18T08:35:43.938Z,7.40
2023-02-18T08:40:48.481Z,8.27
2023-02-18T08:45:53.269Z,7.40
2023-02-18T08:50:57.270Z,6.53
2023-02-18T08:56:01.272Z,7.78
2023-02-18T09:01:08.177Z,7.72
2023-02-18T09:06:12.626Z,7.60
2023-02-18T09:11:16.966Z,8.55
2023-02-18T09:16:21.603Z,7.20
2023-02-18T09:21:25.772Z,7.82
2023-02-18T09:26:29.778Z,7.13
2023-02-18T09:31:33.935Z,7.47
2023-02-18T09:36:39.187Z,7.03
2023-02-18T09:41:45.304Z,7.82
2023-02-18T09:47:03.529Z,7.75
2023-02-18T09:57:36.833Z,5.95
2023-02-18T10:02:57.942Z,7.05
2023-02-18T10:08:10.094Z,8.18
2023-02-18T10:13:21.850Z,6.72
2023-02-18T10:18:36.954Z,6.63
2023-02-18T10:23:45.116Z,6.05
2023-02-18T10:28:49.231Z,6.20
2023-02-18T10:33:59.291Z,6.43
2023-02-18T10:39:08.534Z,6.18
2023-02-18T10:44:13.931Z,7.63
2023-02-18T10:49:43.828Z,7.22
2023-02-18T10:55:07.285Z,6.78
2023-02-18T11:00:24.959Z,7.72
2023-02-18T11:05:29.784Z,6.78
2023-02-18T11:10:36.794Z,6.63
2023-02-18T11:16:07.353Z,7.88
2023-02-18T11:21:23.178Z,6.75
2023-02-18T11:26:38.120Z,7.28
2023-02-18T11:31:48.111Z,6.70
2023-02-18T11:36:53.632Z,6.35
2023-02-18T11:42:07.898Z,7.25
2023-02-18T11:47:15.791Z,7.40
2023-02-18T11:52:21.840Z,11.98
2023-02-18T11:57:27.092Z,10.18
2023-02-18T12:02:31.174Z,9.23
2023-02-18T12:07:46.400Z,11.75
2023-02-18T12:13:03.874Z,14.40
2023-02-18T12:18:17.145Z,18.70
2023-02-18T12:23:42.944Z,12.10
2023-02-18T12:29:07.402Z,9.43
2023-02-18T12:34:52.469Z,8.80
2023-02-18T12:40:21.929Z,9.45
2023-02-18T12:46:10.684Z,13.67
2023-02-18T12:51:30.476Z,12.33
2023-02-18T12:56:59.441Z,13.60
2023-02-18T13:02:08.917Z,10.13
2023-02-18T13:07:20.427Z,12.47
2023-02-18T13:12:39.483Z,21.45
2023-02-18T13:17:45.067Z,18.37
2023-02-18T13:22:51.114Z,17.63
2023-02-18T13:28:19.994Z,20.73
2023-02-18T13:33:37.349Z,20.70
2023-02-18T13:39:05.434Z,19.58
2023-02-18T13:44:30.204Z,16.23
2023-02-18T13:49:36.904Z,14.20
2023-02-18T13:54:51.476Z,16.77
2023-02-18T14:00:03.540Z,14.73
2023-02-18T14:05:09.185Z,15.97
2023-02-18T14:10:19.342Z,22.23
2023-02-18T14:15:23.310Z,18.67
2023-02-18T14:20:38.588Z,18.27
2023-02-18T14:25:43.517Z,21.73
2023-02-18T14:30:48.182Z,17.90
2023-02-18T14:36:01.921Z,16.43
2023-02-18T14:41:35.046Z,14.97
2023-02-18T14:47:07.128Z,16.67
2023-02-18T14:52:28.102Z,17.93
2023-02-18T14:57:49.763Z,17.10
2023-02-18T15:02:56.337Z,62.63
2023-02-18T15:08:01.534Z,16.27
2023-02-18T15:13:09.647Z,20.73
2023-02-18T15:18:29.625Z,11.40
2023-02-18T15:23:38.083Z,16.67
2023-02-18T15:29:05.117Z,14.63
2023-02-18T15:39:36.204Z,14.13
2023-02-18T15:44:50.065Z,13.57
2023-02-18T15:49:58.128Z,14.83
2023-02-18T15:55:15.359Z,16.27
2023-02-18T16:00:29.539Z,15.73
2023-02-18T16:05:39.763Z,18.97
2023-02-18T16:10:50.931Z,17.87
2023-02-18T16:15:55.281Z,18.90
2023-02-18T16:21:18.897Z,22.63
2023-02-18T16:26:45.591Z,16.80
2023-02-18T16:31:49.591Z,26.17
2023-02-18T16:37:12.908Z,22.67
2023-02-18T16:42:16.758Z,16.57
2023-02-18T16:47:21.370Z,21.07
2023-02-18T16:52:25.237Z,19.97
2023-02-18T16:57:29.008Z,19.83
2023-02-18T17:02:33.035Z,22.83
2023-02-18T17:07:37.631Z,20.77
2023-02-18T17:12:43.483Z,19.30
2023-02-18T17:17:47.288Z,22.53
2023-02-18T17:22:51.332Z,20.33
2023-02-18T17:27:55.358Z,20.10
2023-02-18T17:33:03.290Z,23.87
2023-02-18T17:38:19.020Z,19.50
2023-02-18T17:43:26.111Z,19.83
2023-02-18T17:48:30.431Z,17.27
2023-02-18T17:53:35.855Z,18.93
2023-02-18T17:58:39.737Z,18.57
2023-02-18T18:03:43.836Z,21.70
2023-02-18T18:08:49.223Z,60.57
2023-02-18T18:13:53.946Z,22.13
2023-02-18T18:18:57.713Z,21.03
2023-02-18T18:24:01.911Z,20.10
2023-02-18T18:29:05.791Z,18.17
2023-02-18T18:34:10.826Z,20.47
2023-02-18T18:39:15.521Z,16.17
2023-02-18T18:44:19.557Z,15.80
2023-02-18T18:49:23.377Z,17.50
2023-02-18T18:54:27.109Z,16.67
2023-02-18T18:59:32.500Z,15.53
2023-02-18T19:04:36.447Z,15.30
2023-02-18T19:09:40.387Z,17.87
2023-02-18T19:14:45.074Z,17.60
2023-02-18T19:19:48.840Z,15.57
2023-02-18T19:24:52.704Z,15.13
2023-02-18T19:29:56.991Z,14.60
2023-02-18T19:35:00.855Z,17.20
2023-02-18T19:40:09.546Z,15.77
2023-02-18T19:45:14.678Z,19.08
2023-02-18T19:50:18.632Z,13.97
2023-02-18T19:55:23.781Z,15.47
2023-02-18T20:00:27.613Z,13.93
2023-02-18T20:05:31.595Z,17.37
2023-02-18T20:10:36.180Z,17.23
2023-02-18T20:15:41.792Z,15.53
2023-02-18T20:20:49.928Z,16.20
2023-02-18T20:25:53.886Z,19.87
2023-02-18T20:31:09.129Z,17.75
2023-02-18T20:36:15.081Z,17.15
2023-02-18T20:41:20.892Z,18.42
2023-02-18T20:46:25.453Z,18.55
2023-02-18T20:51:29.259Z,18.80
2023-02-18T20:56:33.180Z,20.23
2023-02-18T21:01:37.728Z,19.63
2023-02-18T21:06:42.816Z,19.15
2023-02-18T21:11:46.744Z,22.42
2023-02-18T21:16:50.740Z,18.77
2023-02-18T21:21:54.706Z,19.00
2023-02-18T21:26:58.819Z,19.67
2023-02-18T21:32:02.823Z,19.60
2023-02-18T21:37:06.625Z,22.00
2023-02-18T21:42:11.589Z,20.83
2023-02-18T21:47:15.665Z,21.63
2023-02-18T21:52:19.477Z,19.33
2023-02-18T21:57:24.061Z,21.17
2023-02-18T22:02:31.649Z,19.20
2023-02-18T22:07:36.258Z,36.45
2023-02-18T22:12:40.129Z,22.45
2023-02-18T22:17:44.266Z,20.73
2023-02-18T22:22:48.043Z,21.08
2023-02-18T22:27:51.914Z,19.52
2023-02-18T22:32:55.774Z,16.40
2023-02-18T22:37:59.674Z,13.85
2023-02-18T22:43:04.259Z,16.13
2023-02-18T22:48:08.253Z,16.70
2023-02-18T22:53:12.114Z,13.30
2023-02-18T22:58:15.991Z,14.23
2023-02-18T23:03:19.705Z,16.75
2023-02-18T23:08:25.520Z,13.13
2023-02-18T23:13:29.693Z,13.45
2023-02-18T23:18:36.245Z,13.18
2023-02-18T23:23:40.353Z,12.63
2023-02-18T23:28:51.130Z,12.23
2023-02-18T23:33:58.115Z,12.15
2023-02-18T23:39:09.308Z,11.02
2023-02-18T23:44:18.518Z,9.95
2023-02-18T23:49:25.479Z,13.70
2023-02-18T23:54:29.278Z,13.18
2023-02-18T23:59:34.229Z,11.93
